sensor_id;sensor_type;location;lat;lon;timestamp;temperature;humidity
18103;DHT22;9178;51.120;6.192;2023-08-06T00:00:22;14.70;99.90
18103;DHT22;9178;51.120;6.192;2023-08-06T00:02:49;14.60;99.90
18103;DHT22;9178;51.120;6.192;2023-08-06T00:05:17;14.60;99.90
18103;DHT22;9178;51.120;6.192;2023-08-06T00:07:47;14.60;99.90
18103;DHT22;9178;51.120;6.192;2023-08-06T00:10:15;14.60;99.90
18103;DHT22;9178;51.120;6.192;2023-08-06T00:12:44;14.60;99.90
18103;DHT22;9178;51.120;6.192;2023-08-06T00:15:11;14.70;99.90
18103;DHT22;9178;51.120;6.192;2023-08-06T00:17:41;14.60;99.90
18103;DHT22;9178;51.120;6.192;2023-08-06T00:20:08;14.70;99.90
18103;DHT22;9178;51.120;6.192;2023-08-06T00:22:37;14.70;99.90
18103;DHT22;9178;51.120;6.192;2023-08-06T00:25:05;14.70;99.90
18103;DHT22;9178;51.120;6.192;2023-08-06T00:27:33;14.70;99.90
18103;DHT22;9178;51.120;6.192;2023-08-06T00:30:00;14.70;99.90
18103;DHT22;9178;51.120;6.192;2023-08-06T00:32:27;14.70;99.90
18103;DHT22;9178;51.120;6.192;2023-08-06T00:34:54;14.70;99.90
18103;DHT22;9178;51.120;6.192;2023-08-06T00:37:22;14.70;99.90
18103;DHT22;9178;51.120;6.192;2023-08-06T00:39:49;14.70;99.90
18103;DHT22;9178;51.120;6.192;2023-08-06T00:42:18;14.70;99.90
18103;DHT22;9178;51.120;6.192;2023-08-06T00:44:48;14.70;99.90
18103;DHT22;9178;51.120;6.192;2023-08-06T00:47:15;14.70;99.90
18103;DHT22;9178;51.120;6.192;2023-08-06T00:49:43;14.70;99.90
18103;DHT22;9178;51.120;6.192;2023-08-06T00:52:10;14.70;99.90
18103;DHT22;9178;51.120;6.192;2023-08-06T00:54:38;14.60;99.90
18103;DHT22;9178;51.120;6.192;2023-08-06T00:57:07;14.50;99.90
18103;DHT22;9178;51.120;6.192;2023-08-06T00:59:34;14.40;99.90
18103;DHT22;9178;51.120;6.192;2023-08-06T01:02:03;14.40;99.90
18103;DHT22;9178;51.120;6.192;2023-08-06T01:04:30;14.40;99.90
18103;DHT22;9178;51.120;6.192;2023-08-06T01:07:05;14.40;99.90
18103;DHT22;9178;51.120;6.192;2023-08-06T01:09:41;14.40;99.90
18103;DHT22;9178;51.120;6.192;2023-08-06T01:12:19;14.30;99.90
18103;DHT22;9178;51.120;6.192;2023-08-06T01:14:57;14.30;99.90
18103;DHT22;9178;51.120;6.192;2023-08-06T01:17:29;14.30;99.90
18103;DHT22;9178;51.120;6.192;2023-08-06T01:19:57;14.30;99.90
18103;DHT22;9178;51.120;6.192;2023-08-06T01:22:25;14.40;99.90
18103;DHT22;9178;51.120;6.192;2023-08-06T01:24:52;14.40;99.90
18103;DHT22;9178;51.120;6.192;2023-08-06T01:27:24;14.40;99.90
18103;DHT22;9178;51.120;6.192;2023-08-06T01:30:02;14.40;99.90
18103;DHT22;9178;51.120;6.192;2023-08-06T01:32:32;14.40;99.90
18103;DHT22;9178;51.120;6.192;2023-08-06T01:35:00;14.40;99.90
18103;DHT22;9178;51.120;6.192;2023-08-06T01:37:29;14.50;99.90
18103;DHT22;9178;51.120;6.192;2023-08-06T01:39:57;14.50;99.90
18103;DHT22;9178;51.120;6.192;2023-08-06T01:42:23;14.50;99.90
18103;DHT22;9178;51.120;6.192;2023-08-06T01:44:50;14.40;99.90
18103;DHT22;9178;51.120;6.192;2023-08-06T01:47:17;14.40;99.90
18103;DHT22;9178;51.120;6.192;2023-08-06T01:49:44;14.40;99.90
18103;DHT22;9178;51.120;6.192;2023-08-06T01:52:11;14.40;99.90
18103;DHT22;9178;51.120;6.192;2023-08-06T01:54:39;14.40;99.90
18103;DHT22;9178;51.120;6.192;2023-08-06T01:57:06;14.40;99.90
18103;DHT22;9178;51.120;6.192;2023-08-06T01:59:33;14.50;99.90
18103;DHT22;9178;51.120;6.192;2023-08-06T02:02:00;14.50;99.90
18103;DHT22;9178;51.120;6.192;2023-08-06T02:04:31;14.50;99.90
18103;DHT22;9178;51.120;6.192;2023-08-06T02:06:58;14.50;99.90
18103;DHT22;9178;51.120;6.192;2023-08-06T02:09:25;14.50;99.90
18103;DHT22;9178;51.120;6.192;2023-08-06T02:11:53;14.50;99.90
18103;DHT22;9178;51.120;6.192;2023-08-06T02:14:20;14.50;99.90
18103;DHT22;9178;51.120;6.192;2023-08-06T02:16:50;14.60;99.90
18103;DHT22;9178;51.120;6.192;2023-08-06T02:19:17;14.60;99.90
18103;DHT22;9178;51.120;6.192;2023-08-06T02:21:44;14.60;99.90
18103;DHT22;9178;51.120;6.192;2023-08-06T02:24:11;14.60;99.90
18103;DHT22;9178;51.120;6.192;2023-08-06T02:26:38;14.60;99.90
18103;DHT22;9178;51.120;6.192;2023-08-06T02:29:06;14.70;99.90
18103;DHT22;9178;51.120;6.192;2023-08-06T02:31:33;14.60;99.90
18103;DHT22;9178;51.120;6.192;2023-08-06T02:34:00;14.60;99.90
18103;DHT22;9178;51.120;6.192;2023-08-06T02:36:29;14.60;99.90
18103;DHT22;9178;51.120;6.192;2023-08-06T02:38:57;14.70;99.90
18103;DHT22;9178;51.120;6.192;2023-08-06T02:41:24;14.70;99.90
18103;DHT22;9178;51.120;6.192;2023-08-06T02:43:52;14.70;99.90
18103;DHT22;9178;51.120;6.192;2023-08-06T02:46:20;14.70;99.90
18103;DHT22;9178;51.120;6.192;2023-08-06T02:48:47;14.70;99.90
18103;DHT22;9178;51.120;6.192;2023-08-06T02:51:14;14.70;99.90
18103;DHT22;9178;51.120;6.192;2023-08-06T02:53:41;14.70;99.90
18103;DHT22;9178;51.120;6.192;2023-08-06T02:56:08;14.70;99.90
18103;DHT22;9178;51.120;6.192;2023-08-06T02:58:35;14.80;99.90
18103;DHT22;9178;51.120;6.192;2023-08-06T03:01:03;14.80;99.90
18103;DHT22;9178;51.120;6.192;2023-08-06T03:03:32;14.80;99.90
18103;DHT22;9178;51.120;6.192;2023-08-06T03:06:00;14.80;99.90
18103;DHT22;9178;51.120;6.192;2023-08-06T03:08:30;14.80;99.90
18103;DHT22;9178;51.120;6.192;2023-08-06T03:10:57;14.80;99.90
18103;DHT22;9178;51.120;6.192;2023-08-06T03:13:24;14.80;99.90
18103;DHT22;9178;51.120;6.192;2023-08-06T03:15:54;14.80;99.90
18103;DHT22;9178;51.120;6.192;2023-08-06T03:18:21;14.80;99.90
18103;DHT22;9178;51.120;6.192;2023-08-06T03:20:50;14.80;99.90
18103;DHT22;9178;51.120;6.192;2023-08-06T03:23:17;14.80;99.90
18103;DHT22;9178;51.120;6.192;2023-08-06T03:25:45;14.80;99.90
18103;DHT22;9178;51.120;6.192;2023-08-06T03:28:12;14.80;99.90
18103;DHT22;9178;51.120;6.192;2023-08-06T03:30:39;14.80;99.90
18103;DHT22;9178;51.120;6.192;2023-08-06T03:33:08;14.80;99.90
18103;DHT22;9178;51.120;6.192;2023-08-06T03:35:35;14.80;99.90
18103;DHT22;9178;51.120;6.192;2023-08-06T03:38:05;14.80;99.90
18103;DHT22;9178;51.120;6.192;2023-08-06T03:40:32;14.80;99.90
18103;DHT22;9178;51.120;6.192;2023-08-06T03:43:01;14.80;99.90
18103;DHT22;9178;51.120;6.192;2023-08-06T03:45:29;14.80;99.90
18103;DHT22;9178;51.120;6.192;2023-08-06T03:47:56;14.80;99.90
18103;DHT22;9178;51.120;6.192;2023-08-06T03:50:25;14.80;99.90
18103;DHT22;9178;51.120;6.192;2023-08-06T03:52:53;14.80;99.90
18103;DHT22;9178;51.120;6.192;2023-08-06T03:55:24;14.80;99.90
18103;DHT22;9178;51.120;6.192;2023-08-06T03:57:51;14.80;99.90
18103;DHT22;9178;51.120;6.192;2023-08-06T04:00:18;14.80;99.90
18103;DHT22;9178;51.120;6.192;2023-08-06T04:02:45;14.80;99.90
18103;DHT22;9178;51.120;6.192;2023-08-06T04:05:12;14.70;99.90
18103;DHT22;9178;51.120;6.192;2023-08-06T04:07:42;14.70;99.90
18103;DHT22;9178;51.120;6.192;2023-08-06T04:10:09;14.70;99.90
18103;DHT22;9178;51.120;6.192;2023-08-06T04:12:38;14.70;99.90
18103;DHT22;9178;51.120;6.192;2023-08-06T04:15:06;14.70;99.90
18103;DHT22;9178;51.120;6.192;2023-08-06T04:17:35;14.70;99.90
18103;DHT22;9178;51.120;6.192;2023-08-06T04:20:02;14.70;99.90
18103;DHT22;9178;51.120;6.192;2023-08-06T04:22:29;14.70;99.90
18103;DHT22;9178;51.120;6.192;2023-08-06T04:24:56;14.70;99.90
18103;DHT22;9178;51.120;6.192;2023-08-06T04:27:26;14.60;99.90
18103;DHT22;9178;51.120;6.192;2023-08-06T04:29:55;14.60;99.90
18103;DHT22;9178;51.120;6.192;2023-08-06T04:32:22;14.60;99.90
18103;DHT22;9178;51.120;6.192;2023-08-06T04:34:49;14.70;99.90
18103;DHT22;9178;51.120;6.192;2023-08-06T04:37:16;14.70;99.90
18103;DHT22;9178;51.120;6.192;2023-08-06T04:39:43;14.70;99.90
18103;DHT22;9178;51.120;6.192;2023-08-06T04:42:12;14.70;99.90
18103;DHT22;9178;51.120;6.192;2023-08-06T04:44:40;14.70;99.90
18103;DHT22;9178;51.120;6.192;2023-08-06T04:47:08;14.70;99.90
18103;DHT22;9178;51.120;6.192;2023-08-06T04:49:35;14.80;99.90
18103;DHT22;9178;51.120;6.192;2023-08-06T04:52:02;14.80;99.90
18103;DHT22;9178;51.120;6.192;2023-08-06T04:54:29;14.80;99.90
18103;DHT22;9178;51.120;6.192;2023-08-06T04:56:56;14.70;99.90
18103;DHT22;9178;51.120;6.192;2023-08-06T04:59:23;14.70;99.90
18103;DHT22;9178;51.120;6.192;2023-08-06T05:01:50;14.70;99.90
18103;DHT22;9178;51.120;6.192;2023-08-06T05:04:18;14.70;99.90
18103;DHT22;9178;51.120;6.192;2023-08-06T05:06:45;14.70;99.90
18103;DHT22;9178;51.120;6.192;2023-08-06T05:09:12;14.70;99.90
18103;DHT22;9178;51.120;6.192;2023-08-06T05:11:39;14.70;99.90
18103;DHT22;9178;51.120;6.192;2023-08-06T05:14:05;14.70;99.90
18103;DHT22;9178;51.120;6.192;2023-08-06T05:16:32;14.80;99.90
18103;DHT22;9178;51.120;6.192;2023-08-06T05:18:59;14.80;99.90
18103;DHT22;9178;51.120;6.192;2023-08-06T05:21:27;14.80;99.90
18103;DHT22;9178;51.120;6.192;2023-08-06T05:23:54;14.80;99.90
18103;DHT22;9178;51.120;6.192;2023-08-06T05:26:21;14.90;99.90
18103;DHT22;9178;51.120;6.192;2023-08-06T05:28:48;14.90;99.90
18103;DHT22;9178;51.120;6.192;2023-08-06T05:31:16;14.90;99.90
18103;DHT22;9178;51.120;6.192;2023-08-06T05:33:45;14.90;99.90
18103;DHT22;9178;51.120;6.192;2023-08-06T05:36:12;14.90;99.90
18103;DHT22;9178;51.120;6.192;2023-08-06T05:38:41;14.90;99.90
18103;DHT22;9178;51.120;6.192;2023-08-06T05:41:07;14.90;99.90
18103;DHT22;9178;51.120;6.192;2023-08-06T05:43:34;15.00;99.90
18103;DHT22;9178;51.120;6.192;2023-08-06T05:46:01;15.00;99.90
18103;DHT22;9178;51.120;6.192;2023-08-06T05:48:30;15.00;99.90
18103;DHT22;9178;51.120;6.192;2023-08-06T05:50:57;15.00;99.90
18103;DHT22;9178;51.120;6.192;2023-08-06T05:53:24;15.10;99.90
18103;DHT22;9178;51.120;6.192;2023-08-06T05:55:53;15.10;99.90
18103;DHT22;9178;51.120;6.192;2023-08-06T05:58:20;15.10;99.90
18103;DHT22;9178;51.120;6.192;2023-08-06T06:00:47;15.10;99.90
18103;DHT22;9178;51.120;6.192;2023-08-06T06:03:13;15.10;99.90
18103;DHT22;9178;51.120;6.192;2023-08-06T06:05:40;15.10;99.90
18103;DHT22;9178;51.120;6.192;2023-08-06T06:08:07;15.20;99.90
18103;DHT22;9178;51.120;6.192;2023-08-06T06:10:35;15.20;99.90
18103;DHT22;9178;51.120;6.192;2023-08-06T06:13:03;15.20;99.90
18103;DHT22;9178;51.120;6.192;2023-08-06T06:15:30;15.30;99.90
18103;DHT22;9178;51.120;6.192;2023-08-06T06:17:57;15.30;99.90
18103;DHT22;9178;51.120;6.192;2023-08-06T06:20:24;15.30;99.90
18103;DHT22;9178;51.120;6.192;2023-08-06T06:22:51;15.30;99.90
18103;DHT22;9178;51.120;6.192;2023-08-06T06:25:18;15.40;99.90
18103;DHT22;9178;51.120;6.192;2023-08-06T06:27:45;15.40;99.90
18103;DHT22;9178;51.120;6.192;2023-08-06T06:30:16;15.40;99.90
18103;DHT22;9178;51.120;6.192;2023-08-06T06:32:43;15.40;99.90
18103;DHT22;9178;51.120;6.192;2023-08-06T06:35:09;15.40;99.90
18103;DHT22;9178;51.120;6.192;2023-08-06T06:37:36;15.50;99.90
18103;DHT22;9178;51.120;6.192;2023-08-06T06:40:04;15.50;99.90
18103;DHT22;9178;51.120;6.192;2023-08-06T06:42:31;15.50;99.90
18103;DHT22;9178;51.120;6.192;2023-08-06T06:44:58;15.60;99.90
18103;DHT22;9178;51.120;6.192;2023-08-06T06:47:30;15.60;99.90
18103;DHT22;9178;51.120;6.192;2023-08-06T06:49:57;15.60;99.90
18103;DHT22;9178;51.120;6.192;2023-08-06T06:52:24;15.70;99.90
18103;DHT22;9178;51.120;6.192;2023-08-06T06:54:50;15.80;99.90
18103;DHT22;9178;51.120;6.192;2023-08-06T06:57:17;15.80;99.90
18103;DHT22;9178;51.120;6.192;2023-08-06T06:59:44;15.90;99.90
18103;DHT22;9178;51.120;6.192;2023-08-06T07:02:11;15.90;99.90
18103;DHT22;9178;51.120;6.192;2023-08-06T07:04:39;16.00;99.90
18103;DHT22;9178;51.120;6.192;2023-08-06T07:07:06;16.00;99.90
18103;DHT22;9178;51.120;6.192;2023-08-06T07:09:33;16.10;99.90
18103;DHT22;9178;51.120;6.192;2023-08-06T07:12:00;16.20;99.90
18103;DHT22;9178;51.120;6.192;2023-08-06T07:14:29;16.30;99.90
18103;DHT22;9178;51.120;6.192;2023-08-06T07:16:56;16.20;99.90
18103;DHT22;9178;51.120;6.192;2023-08-06T07:19:23;16.30;99.90
18103;DHT22;9178;51.120;6.192;2023-08-06T07:21:51;16.30;99.90
18103;DHT22;9178;51.120;6.192;2023-08-06T07:24:18;16.40;99.90
18103;DHT22;9178;51.120;6.192;2023-08-06T07:26:45;16.40;99.90
18103;DHT22;9178;51.120;6.192;2023-08-06T07:29:12;16.40;99.90
18103;DHT22;9178;51.120;6.192;2023-08-06T07:31:39;16.40;99.90
18103;DHT22;9178;51.120;6.192;2023-08-06T07:34:06;16.40;99.90
18103;DHT22;9178;51.120;6.192;2023-08-06T07:36:33;16.30;99.90
18103;DHT22;9178;51.120;6.192;2023-08-06T07:39:03;16.20;99.90
18103;DHT22;9178;51.120;6.192;2023-08-06T07:41:31;16.10;99.90
18103;DHT22;9178;51.120;6.192;2023-08-06T07:43:59;16.10;99.90
18103;DHT22;9178;51.120;6.192;2023-08-06T07:46:26;16.10;99.90
18103;DHT22;9178;51.120;6.192;2023-08-06T07:48:52;16.00;99.90
18103;DHT22;9178;51.120;6.192;2023-08-06T07:51:19;16.00;99.90
18103;DHT22;9178;51.120;6.192;2023-08-06T07:53:46;16.00;99.90
18103;DHT22;9178;51.120;6.192;2023-08-06T07:56:18;16.00;99.90
18103;DHT22;9178;51.120;6.192;2023-08-06T07:58:45;15.80;99.90
18103;DHT22;9178;51.120;6.192;2023-08-06T08:01:14;15.90;99.90
18103;DHT22;9178;51.120;6.192;2023-08-06T08:03:41;15.80;99.90
18103;DHT22;9178;51.120;6.192;2023-08-06T08:06:08;15.80;99.90
18103;DHT22;9178;51.120;6.192;2023-08-06T08:08:35;15.70;99.90
18103;DHT22;9178;51.120;6.192;2023-08-06T08:11:04;15.70;99.90
18103;DHT22;9178;51.120;6.192;2023-08-06T08:13:32;15.70;99.90
18103;DHT22;9178;51.120;6.192;2023-08-06T08:16:00;15.60;99.90
18103;DHT22;9178;51.120;6.192;2023-08-06T08:18:27;15.60;99.90
18103;DHT22;9178;51.120;6.192;2023-08-06T08:20:55;15.60;99.90
18103;DHT22;9178;51.120;6.192;2023-08-06T08:23:22;15.50;99.90
18103;DHT22;9178;51.120;6.192;2023-08-06T08:25:49;15.50;99.90
18103;DHT22;9178;51.120;6.192;2023-08-06T08:28:16;15.50;99.90
18103;DHT22;9178;51.120;6.192;2023-08-06T08:30:44;15.40;99.90
18103;DHT22;9178;51.120;6.192;2023-08-06T08:33:12;15.40;99.90
18103;DHT22;9178;51.120;6.192;2023-08-06T08:35:42;15.50;99.90
18103;DHT22;9178;51.120;6.192;2023-08-06T08:38:09;15.50;99.90
18103;DHT22;9178;51.120;6.192;2023-08-06T08:40:40;15.50;99.90
18103;DHT22;9178;51.120;6.192;2023-08-06T08:43:09;15.50;99.90
18103;DHT22;9178;51.120;6.192;2023-08-06T08:45:39;15.50;99.90
18103;DHT22;9178;51.120;6.192;2023-08-06T08:48:08;15.50;99.90
18103;DHT22;9178;51.120;6.192;2023-08-06T08:50:35;15.50;99.90
18103;DHT22;9178;51.120;6.192;2023-08-06T08:53:03;15.40;99.90
18103;DHT22;9178;51.120;6.192;2023-08-06T08:55:30;15.30;99.90
18103;DHT22;9178;51.120;6.192;2023-08-06T08:57:57;15.30;99.90
18103;DHT22;9178;51.120;6.192;2023-08-06T09:00:25;15.20;99.90
18103;DHT22;9178;51.120;6.192;2023-08-06T09:02:53;15.10;99.90
18103;DHT22;9178;51.120;6.192;2023-08-06T09:05:23;15.00;99.90
18103;DHT22;9178;51.120;6.192;2023-08-06T09:07:52;15.00;99.90
18103;DHT22;9178;51.120;6.192;2023-08-06T09:10:20;14.90;99.90
18103;DHT22;9178;51.120;6.192;2023-08-06T09:12:53;14.80;99.90
18103;DHT22;9178;51.120;6.192;2023-08-06T09:15:24;14.70;99.90
18103;DHT22;9178;51.120;6.192;2023-08-06T09:17:52;14.70;99.90
18103;DHT22;9178;51.120;6.192;2023-08-06T09:20:19;14.60;99.90
18103;DHT22;9178;51.120;6.192;2023-08-06T09:22:48;14.60;99.90
18103;DHT22;9178;51.120;6.192;2023-08-06T09:25:21;14.60;99.90
18103;DHT22;9178;51.120;6.192;2023-08-06T09:27:50;14.60;99.90
18103;DHT22;9178;51.120;6.192;2023-08-06T09:30:29;14.50;99.90
18103;DHT22;9178;51.120;6.192;2023-08-06T09:32:56;14.50;99.90
18103;DHT22;9178;51.120;6.192;2023-08-06T09:35:23;14.50;99.90
18103;DHT22;9178;51.120;6.192;2023-08-06T09:37:51;14.60;99.90
18103;DHT22;9178;51.120;6.192;2023-08-06T09:40:26;14.60;99.90
18103;DHT22;9178;51.120;6.192;2023-08-06T09:42:53;14.70;99.90
18103;DHT22;9178;51.120;6.192;2023-08-06T09:45:20;14.70;99.90
18103;DHT22;9178;51.120;6.192;2023-08-06T09:47:48;14.70;99.90
18103;DHT22;9178;51.120;6.192;2023-08-06T09:50:17;14.60;99.90
18103;DHT22;9178;51.120;6.192;2023-08-06T09:52:44;14.50;99.90
18103;DHT22;9178;51.120;6.192;2023-08-06T09:55:12;14.50;99.90
18103;DHT22;9178;51.120;6.192;2023-08-06T09:57:40;14.40;99.90
18103;DHT22;9178;51.120;6.192;2023-08-06T10:00:08;14.30;99.90
18103;DHT22;9178;51.120;6.192;2023-08-06T10:02:36;14.30;99.90
18103;DHT22;9178;51.120;6.192;2023-08-06T10:05:08;14.40;99.90
18103;DHT22;9178;51.120;6.192;2023-08-06T10:07:35;14.40;99.90
18103;DHT22;9178;51.120;6.192;2023-08-06T10:10:05;14.40;99.90
18103;DHT22;9178;51.120;6.192;2023-08-06T10:12:38;14.30;99.90
18103;DHT22;9178;51.120;6.192;2023-08-06T10:15:09;14.40;99.90
18103;DHT22;9178;51.120;6.192;2023-08-06T10:17:37;14.40;99.90
18103;DHT22;9178;51.120;6.192;2023-08-06T10:20:10;14.50;99.90
18103;DHT22;9178;51.120;6.192;2023-08-06T10:22:42;14.60;99.90
18103;DHT22;9178;51.120;6.192;2023-08-06T10:25:10;14.70;99.90
18103;DHT22;9178;51.120;6.192;2023-08-06T10:27:53;14.70;99.90
18103;DHT22;9178;51.120;6.192;2023-08-06T10:30:24;14.80;99.90
18103;DHT22;9178;51.120;6.192;2023-08-06T10:32:52;14.90;99.90
18103;DHT22;9178;51.120;6.192;2023-08-06T10:35:30;15.00;99.90
18103;DHT22;9178;51.120;6.192;2023-08-06T10:38:03;15.00;99.90
18103;DHT22;9178;51.120;6.192;2023-08-06T10:40:31;15.10;99.90
18103;DHT22;9178;51.120;6.192;2023-08-06T10:43:00;15.10;99.90
18103;DHT22;9178;51.120;6.192;2023-08-06T10:45:28;15.20;99.90
18103;DHT22;9178;51.120;6.192;2023-08-06T10:47:56;15.10;99.90
18103;DHT22;9178;51.120;6.192;2023-08-06T10:50:24;15.10;99.90
18103;DHT22;9178;51.120;6.192;2023-08-06T10:52:52;15.20;99.90
18103;DHT22;9178;51.120;6.192;2023-08-06T10:55:23;15.20;99.90
18103;DHT22;9178;51.120;6.192;2023-08-06T10:57:50;15.20;99.90
18103;DHT22;9178;51.120;6.192;2023-08-06T11:00:20;15.30;99.90
18103;DHT22;9178;51.120;6.192;2023-08-06T11:02:48;15.30;99.90
18103;DHT22;9178;51.120;6.192;2023-08-06T11:05:15;15.30;99.90
18103;DHT22;9178;51.120;6.192;2023-08-06T11:07:43;15.20;99.90
18103;DHT22;9178;51.120;6.192;2023-08-06T11:10:11;15.30;99.90
18103;DHT22;9178;51.120;6.192;2023-08-06T11:12:39;15.30;99.90
18103;DHT22;9178;51.120;6.192;2023-08-06T11:15:07;15.30;99.90
18103;DHT22;9178;51.120;6.192;2023-08-06T11:17:36;15.30;99.90
18103;DHT22;9178;51.120;6.192;2023-08-06T11:20:05;15.30;99.90
18103;DHT22;9178;51.120;6.192;2023-08-06T11:22:32;15.30;99.90
18103;DHT22;9178;51.120;6.192;2023-08-06T11:24:59;15.40;99.90
18103;DHT22;9178;51.120;6.192;2023-08-06T11:27:27;15.50;99.90
18103;DHT22;9178;51.120;6.192;2023-08-06T11:29:55;15.50;99.90
18103;DHT22;9178;51.120;6.192;2023-08-06T11:32:23;15.60;99.90
18103;DHT22;9178;51.120;6.192;2023-08-06T11:34:53;15.60;99.90
18103;DHT22;9178;51.120;6.192;2023-08-06T11:37:21;15.60;99.90
18103;DHT22;9178;51.120;6.192;2023-08-06T11:39:50;15.50;99.90
18103;DHT22;9178;51.120;6.192;2023-08-06T11:42:16;15.40;99.90
18103;DHT22;9178;51.120;6.192;2023-08-06T11:44:43;15.40;99.90
18103;DHT22;9178;51.120;6.192;2023-08-06T11:47:14;15.40;99.90
18103;DHT22;9178;51.120;6.192;2023-08-06T11:49:42;15.30;99.90
18103;DHT22;9178;51.120;6.192;2023-08-06T11:52:18;15.20;99.90
18103;DHT22;9178;51.120;6.192;2023-08-06T11:55:01;15.20;99.90
18103;DHT22;9178;51.120;6.192;2023-08-06T11:57:29;15.20;99.90
18103;DHT22;9178;51.120;6.192;2023-08-06T12:00:04;15.20;99.90
18103;DHT22;9178;51.120;6.192;2023-08-06T12:02:33;15.20;99.90
18103;DHT22;9178;51.120;6.192;2023-08-06T12:05:04;15.20;99.90
18103;DHT22;9178;51.120;6.192;2023-08-06T12:07:38;15.20;99.90
18103;DHT22;9178;51.120;6.192;2023-08-06T12:10:06;15.30;99.90
18103;DHT22;9178;51.120;6.192;2023-08-06T12:12:34;15.50;99.90
18103;DHT22;9178;51.120;6.192;2023-08-06T12:15:01;15.70;99.90
18103;DHT22;9178;51.120;6.192;2023-08-06T12:17:30;15.90;99.90
18103;DHT22;9178;51.120;6.192;2023-08-06T12:19:57;16.10;99.90
18103;DHT22;9178;51.120;6.192;2023-08-06T12:22:24;16.20;99.90
18103;DHT22;9178;51.120;6.192;2023-08-06T12:24:52;16.30;99.90
18103;DHT22;9178;51.120;6.192;2023-08-06T12:27:19;16.30;99.90
18103;DHT22;9178;51.120;6.192;2023-08-06T12:29:47;16.30;99.90
18103;DHT22;9178;51.120;6.192;2023-08-06T12:32:15;16.30;99.90
18103;DHT22;9178;51.120;6.192;2023-08-06T12:34:42;16.30;99.90
18103;DHT22;9178;51.120;6.192;2023-08-06T12:37:09;16.30;99.90
18103;DHT22;9178;51.120;6.192;2023-08-06T12:39:37;16.20;99.90
18103;DHT22;9178;51.120;6.192;2023-08-06T12:42:06;16.10;99.90
18103;DHT22;9178;51.120;6.192;2023-08-06T12:44:33;16.10;99.90
18103;DHT22;9178;51.120;6.192;2023-08-06T12:47:00;16.00;99.90
18103;DHT22;9178;51.120;6.192;2023-08-06T12:49:27;16.00;99.90
18103;DHT22;9178;51.120;6.192;2023-08-06T12:51:55;16.00;99.90
18103;DHT22;9178;51.120;6.192;2023-08-06T12:54:26;15.90;99.90
18103;DHT22;9178;51.120;6.192;2023-08-06T12:56:53;15.90;99.90
18103;DHT22;9178;51.120;6.192;2023-08-06T12:59:22;15.90;99.90
18103;DHT22;9178;51.120;6.192;2023-08-06T13:01:49;16.00;99.90
18103;DHT22;9178;51.120;6.192;2023-08-06T13:04:16;16.10;99.90
18103;DHT22;9178;51.120;6.192;2023-08-06T13:06:43;16.10;99.90
18103;DHT22;9178;51.120;6.192;2023-08-06T13:09:10;16.30;99.90
18103;DHT22;9178;51.120;6.192;2023-08-06T13:11:38;16.40;99.90
18103;DHT22;9178;51.120;6.192;2023-08-06T13:14:06;16.80;99.90
18103;DHT22;9178;51.120;6.192;2023-08-06T13:16:36;17.00;99.90
18103;DHT22;9178;51.120;6.192;2023-08-06T13:19:04;17.00;99.90
18103;DHT22;9178;51.120;6.192;2023-08-06T13:21:33;16.80;99.90
18103;DHT22;9178;51.120;6.192;2023-08-06T13:24:01;16.50;99.90
18103;DHT22;9178;51.120;6.192;2023-08-06T13:26:30;16.30;99.90
18103;DHT22;9178;51.120;6.192;2023-08-06T13:28:58;16.10;99.90
18103;DHT22;9178;51.120;6.192;2023-08-06T13:31:25;16.00;99.90
18103;DHT22;9178;51.120;6.192;2023-08-06T13:33:54;16.10;99.90
18103;DHT22;9178;51.120;6.192;2023-08-06T13:36:23;16.00;99.90
18103;DHT22;9178;51.120;6.192;2023-08-06T13:38:50;16.10;99.90
18103;DHT22;9178;51.120;6.192;2023-08-06T13:41:17;16.10;99.90
18103;DHT22;9178;51.120;6.192;2023-08-06T13:43:44;16.20;99.90
18103;DHT22;9178;51.120;6.192;2023-08-06T13:46:11;16.20;99.90
18103;DHT22;9178;51.120;6.192;2023-08-06T13:48:42;16.20;99.90
18103;DHT22;9178;51.120;6.192;2023-08-06T13:51:13;16.20;99.90
18103;DHT22;9178;51.120;6.192;2023-08-06T13:53:40;16.20;99.90
18103;DHT22;9178;51.120;6.192;2023-08-06T13:56:09;16.30;99.90
18103;DHT22;9178;51.120;6.192;2023-08-06T13:58:36;16.40;99.90
18103;DHT22;9178;51.120;6.192;2023-08-06T14:01:04;16.40;99.90
18103;DHT22;9178;51.120;6.192;2023-08-06T14:03:31;16.40;99.90
18103;DHT22;9178;51.120;6.192;2023-08-06T14:05:58;16.50;99.90
18103;DHT22;9178;51.120;6.192;2023-08-06T14:08:26;16.60;99.90
18103;DHT22;9178;51.120;6.192;2023-08-06T14:10:55;16.50;99.90
18103;DHT22;9178;51.120;6.192;2023-08-06T14:13:22;16.60;99.90
18103;DHT22;9178;51.120;6.192;2023-08-06T14:15:49;16.70;99.90
18103;DHT22;9178;51.120;6.192;2023-08-06T14:18:17;16.90;99.90
18103;DHT22;9178;51.120;6.192;2023-08-06T14:20:44;16.90;99.90
18103;DHT22;9178;51.120;6.192;2023-08-06T14:23:11;17.00;99.90
18103;DHT22;9178;51.120;6.192;2023-08-06T14:25:40;17.00;99.90
18103;DHT22;9178;51.120;6.192;2023-08-06T14:28:07;16.90;99.90
18103;DHT22;9178;51.120;6.192;2023-08-06T14:30:34;17.00;99.90
18103;DHT22;9178;51.120;6.192;2023-08-06T14:33:01;17.00;99.90
18103;DHT22;9178;51.120;6.192;2023-08-06T14:35:28;16.90;99.90
18103;DHT22;9178;51.120;6.192;2023-08-06T14:37:55;16.80;99.90
18103;DHT22;9178;51.120;6.192;2023-08-06T14:40:22;16.70;99.90
18103;DHT22;9178;51.120;6.192;2023-08-06T14:42:53;16.70;99.90
18103;DHT22;9178;51.120;6.192;2023-08-06T14:45:20;16.70;99.90
18103;DHT22;9178;51.120;6.192;2023-08-06T14:47:47;16.70;99.90
18103;DHT22;9178;51.120;6.192;2023-08-06T14:50:14;16.80;99.90
18103;DHT22;9178;51.120;6.192;2023-08-06T14:52:41;16.90;99.90
18103;DHT22;9178;51.120;6.192;2023-08-06T14:55:10;17.00;99.90
18103;DHT22;9178;51.120;6.192;2023-08-06T14:57:37;17.00;99.90
18103;DHT22;9178;51.120;6.192;2023-08-06T15:00:07;16.90;99.90
18103;DHT22;9178;51.120;6.192;2023-08-06T15:02:36;16.80;99.90
18103;DHT22;9178;51.120;6.192;2023-08-06T15:05:04;16.80;99.90
18103;DHT22;9178;51.120;6.192;2023-08-06T15:07:31;16.90;99.90
18103;DHT22;9178;51.120;6.192;2023-08-06T15:10:00;16.90;99.90
18103;DHT22;9178;51.120;6.192;2023-08-06T15:12:30;16.90;99.90
18103;DHT22;9178;51.120;6.192;2023-08-06T15:14:57;16.80;99.90
18103;DHT22;9178;51.120;6.192;2023-08-06T15:17:27;16.90;99.90
18103;DHT22;9178;51.120;6.192;2023-08-06T15:19:56;16.90;99.90
18103;DHT22;9178;51.120;6.192;2023-08-06T15:22:23;16.80;99.90
18103;DHT22;9178;51.120;6.192;2023-08-06T15:24:50;16.80;99.90
18103;DHT22;9178;51.120;6.192;2023-08-06T15:27:17;16.80;99.90
18103;DHT22;9178;51.120;6.192;2023-08-06T15:29:44;16.70;99.90
18103;DHT22;9178;51.120;6.192;2023-08-06T15:32:11;16.60;99.90
18103;DHT22;9178;51.120;6.192;2023-08-06T15:34:40;16.60;99.90
18103;DHT22;9178;51.120;6.192;2023-08-06T15:37:10;16.60;99.90
18103;DHT22;9178;51.120;6.192;2023-08-06T15:39:37;16.50;99.90
18103;DHT22;9178;51.120;6.192;2023-08-06T15:42:04;16.50;99.90
18103;DHT22;9178;51.120;6.192;2023-08-06T15:44:34;16.40;99.90
18103;DHT22;9178;51.120;6.192;2023-08-06T15:47:01;16.40;99.90
18103;DHT22;9178;51.120;6.192;2023-08-06T15:49:28;16.30;99.90